KPSK/PSK METAR and TAF weather

Enter ICAO airport designator
Station Type Date Time Source
KPSK METAR 2020/04/04 20:15 UTC NOAA

KPSK 042015Z AUTO 35008G14KT 10SM CLR 21/03 A2997 RMK AO2 T02050034


Station Type Date Time Source
KPSK Decoded METAR 2020/04/04 20:15 UTC NOAA

Dublin / New River Valley, VA, United States (KPSK) 37-08N 080-41W
Apr 04, 2020 - 04:15 PM EDT / 2020.04.04 2015 UTC
Wind: from the N (350 degrees) at 9 MPH (8 KT) gusting to 16 MPH (14 KT):0
Visibility: 10 mile(s):0
Sky conditions: clear
Temperature: 68.9 F (20.5 C)
Dew Point: 38.1 F (3.4 C)
Relative Humidity: 32%
Pressure (altimeter): 29.97 in. Hg (1014 hPa)
ob: KPSK 042015Z AUTO 35008G14KT 10SM CLR 21/03 A2997 RMK AO2 T02050034
cycle: 20

Station Type Date Time Source
KPSK TAF UTC NOAA

Error!

Example: see airport list